createdAt,value
2022-08-26T00:00:25.633Z,83.40
2022-08-26T00:02:56.283Z,83.40
2022-08-26T00:05:27.178Z,83.70
2022-08-26T00:07:58.965Z,83.60
2022-08-26T00:10:30.616Z,82.40
2022-08-26T00:13:02.212Z,82.30
2022-08-26T00:15:32.612Z,81.00
2022-08-26T00:18:03.237Z,82.30
2022-08-26T00:20:47.422Z,82.10
2022-08-26T00:23:18.363Z,81.50
2022-08-26T00:25:53.267Z,80.90
2022-08-26T00:28:27.783Z,80.60
2022-08-26T00:30:59.490Z,80.00
2022-08-26T00:33:31.701Z,78.40
2022-08-26T00:36:06.084Z,78.20
2022-08-26T00:38:40.674Z,77.80
2022-08-26T00:41:13.880Z,78.50
2022-08-26T00:43:46.152Z,77.90
2022-08-26T00:46:26.405Z,76.90
2022-08-26T00:49:21.558Z,78.00
2022-08-26T00:51:57.875Z,79.00
2022-08-26T00:54:36.950Z,77.50
2022-08-26T00:57:16.605Z,76.80
2022-08-26T00:59:55.281Z,76.20
2022-08-26T01:02:26.320Z,76.30
2022-08-26T01:05:03.361Z,75.60
2022-08-26T01:07:38.742Z,74.40
2022-08-26T01:10:16.033Z,74.80
2022-08-26T01:12:55.779Z,74.80
2022-08-26T01:15:29.313Z,76.60
2022-08-26T01:18:08.811Z,76.90
2022-08-26T01:21:08.649Z,74.70
2022-08-26T01:23:57.529Z,75.70
2022-08-26T01:26:41.467Z,75.30
2022-08-26T01:29:20.476Z,74.30
2022-08-26T01:32:01.119Z,74.30
2022-08-26T01:34:39.384Z,75.00
2022-08-26T01:37:15.954Z,74.20
2022-08-26T01:39:48.197Z,72.70
2022-08-26T01:42:21.156Z,71.50
2022-08-26T01:44:56.455Z,71.30
2022-08-26T01:47:30.050Z,72.30
2022-08-26T01:50:04.544Z,71.60
2022-08-26T01:52:37.455Z,72.20
2022-08-26T01:55:09.714Z,72.70
2022-08-26T01:57:42.062Z,73.70
2022-08-26T02:00:21.228Z,74.30
2022-08-26T02:03:14.929Z,72.50
2022-08-26T02:05:52.404Z,72.20
2022-08-26T02:08:31.881Z,72.60
2022-08-26T02:11:04.355Z,72.40
2022-08-26T02:13:42.474Z,71.20
2022-08-26T02:16:15.784Z,70.10
2022-08-26T02:18:47.520Z,70.80
2022-08-26T02:21:18.458Z,72.00
2022-08-26T02:23:51.114Z,71.50
2022-08-26T02:26:27.471Z,72.10
2022-08-26T02:29:14.530Z,70.90
2022-08-26T02:31:47.494Z,71.30
2022-08-26T02:34:24.281Z,69.30
2022-08-26T02:37:05.805Z,68.70
2022-08-26T02:39:39.097Z,67.80
2022-08-26T02:42:10.706Z,68.90
2022-08-26T02:44:46.161Z,67.50
2022-08-26T02:47:18.842Z,69.90
2022-08-26T02:49:49.817Z,69.30
2022-08-26T02:52:20.588Z,70.10
2022-08-26T02:55:00.565Z,70.20
2022-08-26T02:57:33.227Z,69.10
2022-08-26T03:00:08.031Z,69.30
2022-08-26T03:02:39.063Z,70.00
2022-08-26T03:05:12.310Z,70.20
2022-08-26T03:07:44.478Z,71.10
2022-08-26T03:10:18.864Z,70.80
2022-08-26T03:12:52.673Z,70.60
2022-08-26T03:15:28.271Z,70.80
2022-08-26T03:18:05.231Z,71.20
2022-08-26T03:20:36.224Z,72.30
2022-08-26T03:23:07.273Z,72.30
2022-08-26T03:25:41.518Z,71.80
2022-08-26T03:28:12.164Z,71.40
2022-08-26T03:30:45.855Z,72.10
2022-08-26T03:33:18.868Z,72.10
2022-08-26T03:35:51.451Z,71.20
2022-08-26T03:38:30.410Z,72.60
2022-08-26T03:41:01.011Z,72.40
2022-08-26T03:43:33.378Z,72.00
2022-08-26T03:46:10.377Z,69.90
2022-08-26T03:48:43.468Z,68.20
2022-08-26T03:51:19.134Z,70.00
2022-08-26T03:53:51.762Z,70.60
2022-08-26T03:56:23.544Z,70.50
2022-08-26T03:58:54.706Z,70.50
2022-08-26T04:01:25.756Z,70.20
2022-08-26T04:04:03.281Z,69.10
2022-08-26T04:06:36.616Z,69.50
2022-08-26T04:09:10.795Z,69.60
2022-08-26T04:11:42.053Z,69.10
2022-08-26T04:14:20.228Z,68.50
2022-08-26T04:16:52.126Z,68.10
2022-08-26T04:19:23.735Z,68.50
2022-08-26T04:21:55.739Z,68.00
2022-08-26T04:24:31.051Z,69.00
2022-08-26T04:27:04.616Z,69.00
2022-08-26T04:29:41.520Z,69.50
2022-08-26T04:32:12.631Z,69.50
2022-08-26T04:34:44.982Z,70.00
2022-08-26T04:37:17.229Z,68.50
2022-08-26T04:39:48.119Z,68.20
2022-08-26T04:42:25.867Z,70.20
2022-08-26T04:44:57.426Z,70.50
2022-08-26T04:47:31.769Z,69.50
2022-08-26T04:50:03.143Z,70.50
2022-08-26T04:52:34.811Z,70.30
2022-08-26T04:55:06.706Z,69.60
2022-08-26T04:57:39.704Z,70.70
2022-08-26T05:00:15.906Z,70.50
2022-08-26T05:02:48.248Z,71.10
2022-08-26T05:05:22.695Z,70.50
2022-08-26T05:07:54.248Z,71.10
2022-08-26T05:10:29.534Z,71.20
2022-08-26T05:13:04.177Z,71.50
2022-08-26T05:15:41.973Z,70.60
2022-08-26T05:18:14.347Z,71.30
2022-08-26T05:20:50.904Z,71.00
2022-08-26T05:23:24.190Z,71.30
2022-08-26T05:25:59.482Z,72.00
2022-08-26T05:28:33.651Z,73.30
2022-08-26T05:31:13.320Z,71.70
2022-08-26T05:33:46.684Z,71.40
2022-08-26T05:36:21.369Z,71.70
2022-08-26T05:38:52.627Z,70.50
2022-08-26T05:41:27.083Z,70.20
2022-08-26T05:44:07.935Z,70.80
2022-08-26T05:46:40.035Z,70.80
2022-08-26T05:49:12.593Z,71.00
2022-08-26T05:51:47.618Z,70.60
2022-08-26T05:54:21.291Z,71.80
2022-08-26T05:56:54.111Z,70.70
2022-08-26T05:59:24.858Z,70.10
2022-08-26T06:01:59.137Z,69.80
2022-08-26T06:04:30.068Z,70.90
2022-08-26T06:07:01.110Z,70.90
2022-08-26T06:09:31.757Z,71.90
2022-08-26T06:12:03.505Z,72.00
2022-08-26T06:14:33.913Z,71.40
2022-08-26T06:17:04.129Z,71.40
2022-08-26T06:19:34.614Z,71.30
2022-08-26T06:22:25.302Z,72.70
2022-08-26T06:25:14.362Z,72.30
2022-08-26T06:27:44.979Z,71.90
2022-08-26T06:30:16.273Z,72.20
2022-08-26T06:32:47.812Z,72.40
2022-08-26T06:35:20.212Z,73.90
2022-08-26T06:37:51.316Z,73.30
2022-08-26T06:40:25.043Z,73.80
2022-08-26T06:42:55.357Z,74.10
2022-08-26T06:45:26.118Z,74.80
2022-08-26T06:47:56.421Z,74.30
2022-08-26T06:50:26.689Z,74.30
2022-08-26T06:52:57.815Z,74.70
2022-08-26T06:55:29.612Z,75.50
2022-08-26T06:58:00.264Z,76.00
2022-08-26T07:00:31.308Z,76.10
2022-08-26T07:03:01.836Z,76.30
2022-08-26T07:05:32.158Z,76.80
2022-08-26T07:08:04.326Z,77.30
2022-08-26T07:10:34.694Z,77.50
2022-08-26T07:13:08.953Z,77.60
2022-08-26T07:15:43.912Z,77.60
2022-08-26T07:18:15.266Z,77.80
2022-08-26T07:20:47.933Z,78.20
2022-08-26T07:23:18.629Z,79.00
2022-08-26T07:25:50.585Z,79.40
2022-08-26T07:28:23.198Z,80.70
2022-08-26T07:30:54.158Z,79.80
2022-08-26T07:33:24.666Z,80.20
2022-08-26T07:35:54.984Z,80.40
2022-08-26T07:38:28.572Z,80.50
2022-08-26T07:41:03.605Z,82.60
2022-08-26T07:43:35.652Z,82.20
2022-08-26T07:46:07.653Z,83.50
2022-08-26T07:48:38.956Z,83.30
2022-08-26T07:51:10.013Z,83.50
2022-08-26T07:53:41.572Z,84.00
2022-08-26T07:56:11.962Z,84.10
2022-08-26T07:58:47.680Z,84.50
2022-08-26T08:01:21.698Z,85.00
2022-08-26T08:03:53.254Z,85.60
2022-08-26T08:06:28.271Z,85.00
2022-08-26T08:08:59.529Z,85.60
2022-08-26T08:11:32.965Z,85.40
2022-08-26T08:14:03.537Z,85.50
2022-08-26T08:16:41.884Z,86.20
2022-08-26T08:19:17.604Z,85.40
2022-08-26T08:21:48.656Z,86.10
2022-08-26T08:24:19.378Z,85.90
2022-08-26T08:26:50.156Z,87.00
2022-08-26T08:29:21.157Z,86.60
2022-08-26T08:31:56.853Z,87.10
2022-08-26T08:34:30.969Z,86.50
2022-08-26T08:37:01.802Z,87.10
2022-08-26T08:39:34.711Z,87.40
2022-08-26T08:42:31.881Z,88.00
2022-08-26T08:45:25.111Z,87.80
2022-08-26T08:48:13.913Z,88.20
2022-08-26T08:51:15.577Z,88.80
2022-08-26T08:53:50.045Z,89.10
2022-08-26T08:56:54.637Z,89.80
2022-08-26T08:59:28.718Z,89.40
2022-08-26T09:02:12.757Z,89.80
2022-08-26T09:05:15.291Z,90.20
2022-08-26T09:08:15.684Z,90.20
2022-08-26T09:11:02.118Z,90.60
2022-08-26T09:13:33.533Z,90.80
2022-08-26T09:16:20.301Z,90.90
2022-08-26T09:18:58.818Z,90.80
2022-08-26T09:21:31.851Z,91.10
2022-08-26T09:24:02.707Z,90.80
2022-08-26T09:26:47.272Z,90.90
2022-08-26T09:29:29.496Z,90.90
2022-08-26T09:32:28.559Z,90.90
2022-08-26T09:35:10.657Z,91.00
2022-08-26T09:40:27.087Z,91.00
2022-08-26T09:43:15.600Z,91.10
2022-08-26T09:45:52.693Z,91.20
2022-08-26T09:48:41.157Z,91.40
2022-08-26T09:51:29.164Z,91.70
2022-08-26T09:54:02.456Z,91.40
2022-08-26T09:56:34.900Z,91.20
2022-08-26T09:59:07.264Z,91.30
2022-08-26T10:01:45.170Z,91.60
2022-08-26T10:04:23.316Z,92.00
2022-08-26T10:07:06.547Z,91.60
2022-08-26T10:09:45.061Z,91.80
2022-08-26T10:12:23.641Z,92.00
2022-08-26T10:15:01.404Z,92.00
2022-08-26T10:17:50.792Z,92.10
2022-08-26T10:20:31.348Z,92.20
2022-08-26T10:23:19.053Z,92.00
2022-08-26T10:26:02.232Z,92.40
2022-08-26T10:28:54.153Z,92.50
2022-08-26T10:31:40.978Z,92.30
2022-08-26T10:34:13.978Z,92.30
2022-08-26T10:37:24.452Z,92.20
2022-08-26T10:40:09.774Z,92.40
2022-08-26T10:42:57.164Z,92.50
2022-08-26T10:45:34.834Z,92.60
2022-08-26T10:48:26.541Z,92.80
2022-08-26T10:51:08.642Z,92.80
2022-08-26T10:54:04.904Z,92.90
2022-08-26T10:57:42.494Z,93.00
2022-08-26T11:01:02.494Z,92.90
2022-08-26T11:03:50.500Z,92.70
2022-08-26T11:06:33.035Z,92.90
2022-08-26T11:09:11.190Z,93.20
2022-08-26T11:11:47.057Z,92.90
2022-08-26T11:14:29.146Z,93.30
2022-08-26T11:17:01.917Z,94.00
2022-08-26T11:20:00.144Z,93.50
2022-08-26T11:22:48.032Z,93.60
2022-08-26T11:25:41.467Z,93.80
2022-08-26T11:28:13.454Z,93.90
2022-08-26T11:30:46.473Z,94.00
2022-08-26T11:33:49.259Z,93.70
2022-08-26T11:36:44.609Z,94.40
2022-08-26T11:39:59.942Z,94.20
2022-08-26T11:42:46.691Z,94.00
2022-08-26T11:45:25.133Z,94.00
2022-08-26T11:47:56.521Z,94.00
2022-08-26T11:50:29.908Z,94.00
2022-08-26T11:53:07.905Z,93.90
2022-08-26T11:55:44.739Z,93.90
2022-08-26T11:58:20.513Z,94.10
2022-08-26T12:01:11.423Z,93.90
2022-08-26T12:03:51.735Z,93.80
2022-08-26T12:06:30.043Z,93.90
2022-08-26T12:09:03.562Z,93.70
2022-08-26T12:11:39.210Z,93.60
2022-08-26T12:14:27.724Z,93.80
2022-08-26T12:17:22.473Z,93.80
2022-08-26T12:19:52.910Z,93.80
2022-08-26T12:22:29.221Z,93.90
2022-08-26T12:25:02.848Z,93.80
2022-08-26T12:27:43.748Z,93.80
2022-08-26T12:30:17.941Z,94.00
2022-08-26T12:32:58.766Z,94.00
2022-08-26T12:35:30.472Z,94.00
2022-08-26T12:38:04.529Z,93.90
2022-08-26T12:40:48.029Z,94.10
2022-08-26T12:43:43.161Z,94.10
2022-08-26T12:46:20.582Z,94.10
2022-08-26T12:48:52.290Z,94.30
2022-08-26T12:51:29.796Z,94.30
2022-08-26T12:54:01.199Z,94.20
2022-08-26T12:56:44.267Z,94.20
2022-08-26T12:59:28.889Z,94.70
2022-08-26T13:01:59.716Z,94.40
2022-08-26T13:04:48.127Z,94.20
2022-08-26T13:07:31.706Z,93.90
2022-08-26T13:10:02.875Z,93.80
2022-08-26T13:12:38.861Z,94.20
2022-08-26T13:15:10.012Z,94.20
2022-08-26T13:17:45.331Z,94.20
2022-08-26T13:20:17.627Z,94.30
2022-08-26T13:23:14.007Z,94.40
2022-08-26T13:25:45.417Z,94.40
2022-08-26T13:28:16.448Z,94.40
2022-08-26T13:30:51.337Z,94.60
2022-08-26T13:33:23.116Z,94.70
2022-08-26T13:36:05.296Z,94.70
2022-08-26T13:38:37.482Z,94.50
2022-08-26T13:41:08.078Z,95.00
2022-08-26T13:43:38.869Z,94.20
2022-08-26T13:46:10.089Z,94.40
2022-08-26T13:48:44.827Z,94.50
2022-08-26T13:51:16.311Z,94.40
2022-08-26T13:53:47.192Z,94.20
2022-08-26T13:56:18.172Z,94.30
2022-08-26T13:58:49.945Z,94.30
2022-08-26T14:01:22.004Z,94.70
2022-08-26T14:03:53.061Z,94.50
2022-08-26T14:06:23.792Z,94.60
2022-08-26T14:08:55.910Z,94.80
2022-08-26T14:11:27.401Z,94.60
2022-08-26T14:13:58.299Z,94.10
2022-08-26T14:16:36.133Z,94.20
2022-08-26T14:19:08.891Z,94.30
2022-08-26T14:21:42.507Z,94.70
2022-08-26T14:24:12.803Z,94.60
2022-08-26T14:26:43.938Z,94.60
2022-08-26T22:24:45.506Z,96.60
2022-08-26T22:27:16.929Z,96.70
2022-08-26T22:29:49.618Z,96.60
2022-08-26T22:32:20.376Z,96.40
2022-08-26T22:34:54.964Z,96.20
2022-08-26T22:37:25.444Z,96.10
2022-08-26T22:39:56.216Z,95.70
2022-08-26T22:42:26.571Z,95.80
2022-08-26T22:44:56.751Z,95.70
2022-08-26T22:47:30.924Z,95.50
2022-08-26T22:50:04.283Z,95.40
2022-08-26T22:52:36.721Z,95.20
2022-08-26T22:55:11.102Z,95.10
2022-08-26T22:57:44.954Z,95.00
2022-08-26T23:00:22.492Z,94.90
2022-08-26T23:03:03.557Z,94.80
2022-08-26T23:05:44.237Z,94.50
2022-08-26T23:08:17.657Z,94.30
2022-08-26T23:10:50.417Z,94.00
2022-08-26T23:13:21.319Z,93.80
2022-08-26T23:15:51.572Z,93.50
2022-08-26T23:18:22.039Z,93.20
2022-08-26T23:20:55.617Z,92.90
2022-08-26T23:23:30.570Z,92.90
2022-08-26T23:26:05.682Z,92.70
2022-08-26T23:28:39.719Z,92.70
2022-08-26T23:31:10.454Z,92.00
2022-08-26T23:34:02.802Z,91.70
2022-08-26T23:36:36.874Z,91.60
2022-08-26T23:39:10.692Z,91.20
2022-08-26T23:41:41.182Z,91.10
2022-08-26T23:44:14.672Z,91.00
2022-08-26T23:46:50.697Z,91.00
2022-08-26T23:49:21.003Z,90.50
2022-08-26T23:52:09.008Z,90.40
2022-08-26T23:54:40.330Z,90.30
2022-08-26T23:57:11.711Z,90.00
2022-08-26T23:59:42.388Z,89.70
